Time;durP1;ratioP1;P1;durP2;ratioP2;P2;SDS_P1;SDS_P2;PMS_P1;PMS_P2;Temp;Humidity;BMP_temperature;BMP_pressure;BME280_temperature;BME280_humidity;BME280_pressure;Samples;Min_cycle;Max_cycle;Signal;HPM_P1;HPM_P2
2021/06/02 00:03:14;;;;;;;6.60;3.83;;;;;;;19.12;24.09;101231.25;4735556;29;99756;-72
2021/06/02 00:06:07;;;;;;;5.28;4.05;;;;;;;19.12;24.00;101229.44;4734077;29;97285;-71
2021/06/02 00:08:35;;;;;;;5.95;4.50;;;;;;;19.13;24.06;101236.66;4736234;29;97173;-71
2021/06/02 00:11:05;;;;;;;6.35;4.43;;;;;;;19.13;24.42;101235.75;4736845;29;99574;-71
2021/06/02 00:13:34;;;;;;;5.00;3.83;;;;;;;19.10;24.35;101233.09;4738096;29;97445;-71
2021/06/02 00:16:02;;;;;;;5.57;4.35;;;;;;;19.07;24.37;101236.69;4737105;29;97985;-71
2021/06/02 00:18:29;;;;;;;3.92;3.55;;;;;;;19.05;24.63;101230.41;4738469;29;98223;-71
2021/06/02 00:20:57;;;;;;;4.53;4.13;;;;;;;19.05;24.52;101230.41;4721763;29;99019;-70
2021/06/02 00:23:26;;;;;;;5.47;3.97;;;;;;;19.02;24.51;101233.13;4736129;29;99398;-69
2021/06/02 00:25:53;;;;;;;4.28;3.83;;;;;;;19.01;24.75;101236.72;4734583;29;97011;-71
2021/06/02 00:28:21;;;;;;;4.60;4.00;;;;;;;18.99;25.00;101227.75;4735098;29;97754;-71
2021/06/02 00:30:50;;;;;;;4.30;3.92;;;;;;;18.95;25.01;101234.09;4720848;29;98882;-70
2021/06/02 00:33:18;;;;;;;3.97;3.67;;;;;;;18.94;25.02;101237.66;4735500;29;99905;-71
2021/06/02 00:35:45;;;;;;;5.88;4.05;;;;;;;18.92;25.08;101234.97;4735367;29;96861;-70
2021/06/02 00:38:13;;;;;;;4.30;3.85;;;;;;;18.92;25.16;101228.69;4736849;29;97099;-70
2021/06/02 00:40:44;;;;;;;3.85;3.55;;;;;;;18.89;25.06;101231.41;4734503;29;97954;-70
2021/06/02 00:43:14;;;;;;;4.05;3.75;;;;;;;18.89;24.85;101231.41;4735532;29;97691;-71
2021/06/02 00:45:43;;;;;;;4.57;4.18;;;;;;;18.89;25.22;101231.41;4734146;29;97884;-70
2021/06/02 00:48:14;;;;;;;4.20;3.90;;;;;;;18.87;25.16;101225.13;4738002;29;96855;-70
2021/06/02 00:50:43;;;;;;;5.22;3.90;;;;;;;18.88;25.11;101229.59;4740019;29;98571;-70
2021/06/02 00:53:11;;;;;;;4.10;3.70;;;;;;;18.85;25.41;101225.16;4738333;29;101071;-71
2021/06/02 00:55:40;;;;;;;4.03;3.50;;;;;;;18.86;25.41;101236.84;4734231;29;98248;-69
2021/06/02 00:58:13;;;;;;;5.10;3.42;;;;;;;18.84;25.48;101228.72;4735649;29;97712;-70
2021/06/02 01:00:42;;;;;;;4.13;3.65;;;;;;;18.84;25.33;101228.72;4733916;29;99357;-71
2021/06/02 01:03:11;;;;;;;5.72;3.90;;;;;;;18.83;25.30;101235.03;4735922;29;97527;-70
2021/06/02 01:05:39;;;;;;;4.97;3.88;;;;;;;18.81;25.55;101234.16;4718997;29;97693;-70
2021/06/02 01:08:06;;;;;;;5.47;4.13;;;;;;;18.79;25.65;101241.34;4734194;29;97334;-71
2021/06/02 01:10:35;;;;;;;4.45;3.95;;;;;;;18.73;25.38;101241.38;4719745;29;98296;-71
2021/06/02 01:13:07;;;;;;;4.93;3.50;;;;;;;18.72;25.57;101241.38;4736112;29;99205;-70
2021/06/02 01:15:39;;;;;;;4.30;3.92;;;;;;;18.70;25.49;101243.19;4735178;29;97182;-70
2021/06/02 01:18:09;;;;;;;4.38;3.92;;;;;;;18.67;25.43;101243.19;4735450;29;97290;-70
2021/06/02 01:20:37;;;;;;;3.72;3.45;;;;;;;18.68;25.38;101242.25;4720984;29;99355;-70
2021/06/02 01:23:31;;;;;;;3.97;3.30;;;;;;;18.64;25.58;101241.38;4735989;29;98818;-70
2021/06/02 01:25:59;;;;;;;4.82;3.15;;;;;;;18.62;25.74;101236.91;4735166;29;96583;-70
2021/06/02 01:28:27;;;;;;;3.88;3.58;;;;;;;18.61;25.52;101245.91;4733300;29;96990;-71
2021/06/02 01:30:54;;;;;;;3.63;3.33;;;;;;;18.57;25.80;101245.00;4732926;29;101321;-70
2021/06/02 01:33:32;;;;;;;5.47;3.70;;;;;;;18.48;26.81;101247.75;4733125;29;97410;-70
2021/06/02 01:36:05;;;;;;;5.97;4.00;;;;;;;18.55;26.38;101245.94;4731250;29;97732;-70
2021/06/02 01:39:06;;;;;;;4.18;3.78;;;;;;;18.58;26.60;101241.44;4733033;29;98078;-70
2021/06/02 01:41:48;;;;;;;3.67;3.38;;;;;;;18.53;26.42;101245.91;4715331;29;97563;-70
2021/06/02 01:45:08;;;;;;;3.50;2.83;;;;;;;18.54;26.55;101245.03;4733889;29;97737;-71
2021/06/02 01:48:24;;;;;;;4.00;3.35;;;;;;;18.54;26.52;101250.44;4732001;29;97456;-70
2021/06/02 01:51:09;;;;;;;4.70;3.60;;;;;;;18.53;26.42;101251.31;4732789;29;97785;-69
2021/06/02 01:53:48;;;;;;;4.32;3.30;;;;;;;18.50;26.24;101245.03;4732391;29;99495;-70
2021/06/02 01:57:06;;;;;;;3.33;3.03;;;;;;;18.45;26.50;101250.47;4733390;29;97236;-70
2021/06/02 02:00:04;;;;;;;2.80;2.70;;;;;;;18.37;26.34;101240.63;4678035;30;97718;-70
2021/06/02 02:03:06;;;;;;;3.25;3.05;;;;;;;18.35;26.45;101239.72;4661322;30;96938;-68
2021/06/02 02:06:15;;;;;;;5.18;2.97;;;;;;;18.31;26.34;101241.53;4726777;29;99800;-72
2021/06/02 02:08:45;;;;;;;3.45;3.05;;;;;;;18.24;26.25;101249.66;4702842;29;97474;-70
2021/06/02 02:11:35;;;;;;;3.90;3.28;;;;;;;18.23;26.61;101251.44;4730130;29;97645;-71
2021/06/02 02:14:42;;;;;;;3.88;3.13;;;;;;;18.19;26.57;101251.44;4732777;29;97900;-69
2021/06/02 02:17:28;;;;;;;4.43;3.03;;;;;;;18.14;26.23;101255.94;4730876;29;98351;-70
2021/06/02 02:20:03;;;;;;;3.67;2.80;;;;;;;18.07;26.18;101254.16;4732369;29;100974;-70
2021/06/02 02:22:46;;;;;;;2.65;2.55;;;;;;;18.04;26.50;101246.97;4734737;29;97436;-70
2021/06/02 02:25:20;;;;;;;3.58;3.28;;;;;;;18.02;26.35;101246.09;4733162;29;98226;-70
2021/06/02 02:28:02;;;;;;;2.75;2.55;;;;;;;18.01;26.42;101239.78;4733611;29;101052;-69
2021/06/02 02:30:40;;;;;;;3.60;2.45;;;;;;;17.94;26.43;101250.56;4733319;29;97975;-70
2021/06/02 02:33:22;;;;;;;3.90;2.88;;;;;;;17.96;26.55;101244.28;4716564;29;96894;-70
2021/06/02 02:35:58;;;;;;;2.88;2.67;;;;;;;17.92;26.43;101242.50;4731756;29;97550;-71
2021/06/02 02:38:32;;;;;;;2.58;2.40;;;;;;;17.88;26.19;101246.09;4730822;29;99228;-71
2021/06/02 02:41:08;;;;;;;3.30;3.00;;;;;;;17.86;26.25;101252.38;4732334;29;101102;-71
2021/06/02 02:43:56;;;;;;;2.97;2.55;;;;;;;17.84;26.63;101254.16;4732813;29;97642;-71
2021/06/02 02:46:28;;;;;;;2.88;2.67;;;;;;;17.77;26.29;101253.28;4730473;29;97982;-71
2021/06/02 02:49:04;;;;;;;3.10;2.80;;;;;;;17.80;26.27;101252.41;4717778;29;98981;-71
2021/06/02 02:51:41;;;;;;;3.70;3.00;;;;;;;17.76;26.42;101258.69;4733053;29;100833;-70
2021/06/02 02:54:10;;;;;;;2.50;2.40;;;;;;;17.76;26.30;101256.88;4731053;29;98790;-71
2021/06/02 02:56:44;;;;;;;2.33;2.22;;;;;;;17.73;26.33;101259.56;4732905;29;98010;-70
2021/06/02 02:59:19;;;;;;;2.67;2.58;;;;;;;17.73;26.32;101264.94;4733562;29;98005;-71
2021/06/02 03:01:53;;;;;;;2.83;2.53;;;;;;;17.71;26.33;101264.03;4732690;29;100411;-70
2021/06/02 03:04:23;;;;;;;3.33;2.53;;;;;;;17.66;26.22;101263.16;4732295;29;97848;-71
2021/06/02 03:06:53;;;;;;;2.60;2.42;;;;;;;17.69;26.55;101271.22;4746509;29;97377;-71
2021/06/02 03:09:30;;;;;;;2.55;2.45;;;;;;;17.61;26.59;101278.44;4734019;29;97666;-70
2021/06/02 03:12:16;;;;;;;2.50;2.30;;;;;;;17.55;26.92;101269.44;4732483;29;97559;-70
2021/06/02 03:14:50;;;;;;;4.40;2.60;;;;;;;17.53;26.50;101282.88;4730627;29;97182;-70
2021/06/02 03:17:23;;;;;;;3.25;2.83;;;;;;;17.50;26.54;101277.53;4732389;29;97153;-71
2021/06/02 03:20:00;;;;;;;3.17;2.33;;;;;;;17.48;26.77;101282.00;4732204;29;99945;-70
2021/06/02 03:22:41;;;;;;;2.85;2.30;;;;;;;17.50;26.45;101280.22;4731895;29;100387;-69
2021/06/02 03:25:19;;;;;;;2.50;2.30;;;;;;;17.48;26.67;101275.72;4733197;29;97082;-70
2021/06/02 03:28:17;;;;;;;2.47;2.28;;;;;;;17.45;26.91;101283.78;4717325;29;97915;-69
2021/06/02 03:30:57;;;;;;;2.35;2.25;;;;;;;17.43;26.79;101281.09;4714734;29;100740;-70
2021/06/02 03:33:37;;;;;;;2.70;2.42;;;;;;;17.40;26.77;101286.47;4731872;29;98775;-69
2021/06/02 03:36:11;;;;;;;2.10;2.10;;;;;;;17.37;26.63;101289.13;4747153;29;97472;-71
2021/06/02 03:38:57;;;;;;;2.67;2.47;;;;;;;17.25;27.23;101297.19;4731980;29;97247;-70
2021/06/02 03:41:36;;;;;;;2.70;2.22;;;;;;;17.23;27.04;101290.91;4732769;29;98190;-70
2021/06/02 03:44:16;;;;;;;3.33;2.00;;;;;;;17.26;26.80;101296.28;4734767;29;99054;-70
2021/06/02 03:46:54;;;;;;;2.20;2.00;;;;;;;17.17;27.12;101298.03;4732352;29;97393;-70
2021/06/02 03:49:28;;;;;;;2.35;2.25;;;;;;;17.12;27.00;101291.78;4737255;29;97318;-70
2021/06/02 03:51:58;;;;;;;2.20;2.10;;;;;;;17.10;26.89;101299.84;4733304;29;97732;-69
2021/06/02 03:54:34;;;;;;;2.17;2.00;;;;;;;17.11;27.02;101298.94;4733065;29;99374;-70
2021/06/02 03:57:15;;;;;;;2.50;2.30;;;;;;;17.06;27.25;101309.69;4727707;29;97679;-70
2021/06/02 03:59:43;;;;;;;2.40;2.30;;;;;;;17.06;26.98;101306.09;4742709;29;97220;-70
2021/06/02 04:02:29;;;;;;;2.38;2.22;;;;;;;17.07;27.08;101302.53;4732081;29;97942;-70
2021/06/02 04:05:21;;;;;;;4.78;2.83;;;;;;;17.08;26.95;101307.00;4729220;29;100560;-70
2021/06/02 04:08:05;;;;;;;41.15;21.92;;;;;;;17.09;27.21;101314.16;4679510;29;98041;-70
2021/06/02 04:10:44;;;;;;;6.63;4.63;;;;;;;17.05;27.08;101304.31;4732306;29;97762;-71
2021/06/02 04:13:20;;;;;;;2.70;2.50;;;;;;;17.04;27.29;101300.72;4731235;29;99244;-70
2021/06/02 04:15:49;;;;;;;2.30;2.20;;;;;;;17.04;27.08;101305.19;4732324;29;99361;-69
2021/06/02 04:18:19;;;;;;;20.42;10.07;;;;;;;17.01;27.41;101302.50;4732156;29;96848;-70
2021/06/02 04:20:47;;;;;;;34.72;24.55;;;;;;;16.98;27.18;101300.69;4732312;29;97572;-70
2021/06/02 04:23:15;;;;;;;5.15;4.70;;;;;;;16.96;27.17;101299.78;4734170;29;98004;-68
2021/06/02 04:25:44;;;;;;;2.97;2.42;;;;;;;16.98;26.97;101307.88;4719904;29;99474;-70
2021/06/02 04:28:13;;;;;;;4.57;2.70;;;;;;;16.96;27.30;101298.91;4736603;29;98090;-70
2021/06/02 04:30:48;;;;;;;2.50;2.40;;;;;;;16.94;27.36;101306.06;4735125;29;97735;-69
2021/06/02 04:33:16;;;;;;;2.47;2.28;;;;;;;16.94;27.20;101298.88;4735812;29;99291;-70
2021/06/02 04:35:50;;;;;;;10.80;6.18;;;;;;;16.92;27.45;101297.09;4735219;29;99228;-70
2021/06/02 04:38:20;;;;;;;3.25;2.95;;;;;;;16.87;27.21;101298.88;4735040;29;97611;-70
2021/06/02 04:40:47;;;;;;;2.30;2.10;;;;;;;16.84;27.49;101294.38;4718632;29;99000;-69
2021/06/02 04:43:15;;;;;;;4.20;2.53;;;;;;;16.78;27.77;101286.28;4733495;29;97923;-71
2021/06/02 04:45:53;;;;;;;2.50;2.28;;;;;;;16.74;28.13;101288.97;4737211;29;97636;-69
2021/06/02 04:48:21;;;;;;;2.17;2.08;;;;;;;16.72;28.00;101288.06;4733272;29;98064;-70
2021/06/02 04:50:55;;;;;;;2.10;2.00;;;;;;;16.74;28.04;101294.34;4734683;29;97393;-70
2021/06/02 04:53:59;;;;;;;21.58;13.57;;;;;;;16.75;28.81;101302.41;4734933;29;99418;-70
2021/06/02 04:56:53;;;;;;;11.00;8.05;;;;;;;16.75;28.52;101312.25;4733766;29;99287;-70
2021/06/02 04:59:39;;;;;;;2.58;2.47;;;;;;;16.78;28.61;101315.84;4701604;29;98171;-70
2021/06/02 05:02:50;;;;;;;2.50;2.40;;;;;;;16.78;28.79;101317.66;4736568;29;97630;-72
2021/06/02 05:05:24;;;;;;;2.65;2.47;;;;;;;16.74;28.46;101313.16;4734027;29;99015;-70
2021/06/02 05:08:31;;;;;;;3.60;2.25;;;;;;;16.77;28.73;101318.53;4733214;29;100632;-73
2021/06/02 05:11:34;;;;;;;2.20;2.10;;;;;;;16.74;28.83;101321.22;4732464;29;97700;-74
2021/06/02 05:14:47;;;;;;;2.85;2.08;;;;;;;16.71;28.92;101322.09;4709505;29;97767;-69
2021/06/02 05:17:25;;;;;;;2.47;2.28;;;;;;;16.66;28.99;101313.09;4715664;29;100679;-69
2021/06/02 05:20:50;;;;;;;3.95;2.38;;;;;;;16.64;29.01;101322.03;4729109;29;98052;-68
2021/06/02 05:23:57;;;;;;;5.88;2.50;;;;;;;16.68;29.30;101331.91;4732275;29;97174;-68
2021/06/02 05:27:08;;;;;;;2.05;1.95;;;;;;;16.64;29.60;101352.50;4733544;29;97121;-69
2021/06/02 05:30:10;;;;;;;5.63;2.70;;;;;;;16.63;29.52;101339.97;4733382;29;99446;-68
2021/06/02 05:33:20;;;;;;;2.63;2.42;;;;;;;16.58;29.96;101336.31;4735341;29;97598;-71
2021/06/02 05:36:20;;;;;;;3.47;3.28;;;;;;;16.59;30.12;101343.50;4750151;29;97683;-71
2021/06/02 05:39:23;;;;;;;2.53;2.33;;;;;;;16.61;29.99;101340.81;4734526;29;96856;-70
2021/06/02 05:41:59;;;;;;;13.85;9.95;;;;;;;16.63;29.33;101328.31;4690730;29;97591;-69
2021/06/02 05:44:59;;;;;;;18.45;10.15;;;;;;;16.65;29.80;101321.16;4732214;29;100085;-70
2021/06/02 05:47:43;;;;;;;3.88;2.92;;;;;;;16.67;29.50;101320.25;4731442;29;97238;-71
2021/06/02 05:50:23;;;;;;;133.48;69.65;;;;;;;16.71;29.53;101326.56;4732866;29;97922;-71
2021/06/02 05:53:13;;;;;;;21.65;13.02;;;;;;;16.75;29.77;101323.91;4717655;29;99765;-71
2021/06/02 05:55:54;;;;;;;6.85;4.82;;;;;;;16.76;29.38;101331.06;4732948;29;99020;-70
2021/06/02 05:58:54;;;;;;;5.82;2.83;;;;;;;16.81;30.05;101320.34;4732408;29;98219;-72
2021/06/02 06:01:39;;;;;;;3.17;2.97;;;;;;;16.76;29.67;101331.06;4733375;29;97605;-70
2021/06/02 06:04:39;;;;;;;3.10;2.70;;;;;;;16.79;29.72;101325.72;4733879;29;98341;-71
2021/06/02 06:07:13;;;;;;;2.65;2.47;;;;;;;16.83;29.47;101324.84;4731002;29;99668;-71
2021/06/02 06:10:03;;;;;;;3.20;2.90;;;;;;;16.92;30.03;101326.66;4733697;29;96926;-74
2021/06/02 06:12:58;;;;;;;2.50;2.30;;;;;;;17.00;30.37;101336.56;4731681;29;97819;-70
2021/06/02 06:15:58;;;;;;;53.30;25.38;;;;;;;17.03;30.18;101331.22;4732142;29;99903;-75
2021/06/02 06:18:50;;;;;;;9.68;5.55;;;;;;;17.08;29.91;101325.81;4732883;29;100591;-70
2021/06/02 06:21:41;;;;;;;3.78;3.50;;;;;;;17.14;29.80;101327.63;4731309;29;98246;-69
2021/06/02 06:24:11;;;;;;;3.90;2.70;;;;;;;17.13;29.12;101326.72;4732090;29;98106;-70
2021/06/02 06:26:41;;;;;;;2.88;2.67;;;;;;;17.17;29.22;101330.31;4731223;29;99303;-70
2021/06/02 06:29:12;;;;;;;2.78;2.58;;;;;;;17.20;28.96;101331.22;4731454;29;98936;-69
2021/06/02 06:31:44;;;;;;;3.63;2.88;;;;;;;17.25;29.30;101332.16;4732038;29;96859;-69
2021/06/02 06:34:16;;;;;;;3.95;2.88;;;;;;;17.26;29.33;101331.25;4733514;29;97297;-70
2021/06/02 06:36:45;;;;;;;3.85;2.90;;;;;;;17.35;29.12;101324.97;4729867;29;98639;-70
2021/06/02 06:39:23;;;;;;;3.05;2.75;;;;;;;17.38;29.58;101327.72;4730980;29;97845;-69
2021/06/02 06:41:52;;;;;;;3.15;2.85;;;;;;;17.40;29.00;101316.06;4731334;29;98128;-69
2021/06/02 06:44:20;;;;;;;2.78;2.55;;;;;;;17.46;29.19;101316.06;4731192;29;96935;-70
2021/06/02 06:46:52;;;;;;;67.47;34.20;;;;;;;17.43;29.23;101316.09;4730415;29;99227;-70
2021/06/02 06:49:20;;;;;;;22.92;14.45;;;;;;;17.51;29.06;101325.03;4732888;29;100629;-70
2021/06/02 06:51:52;;;;;;;3.90;3.55;;;;;;;17.56;29.23;101323.28;4731781;29;97488;-69
2021/06/02 06:54:21;;;;;;;3.22;2.97;;;;;;;17.57;29.10;101314.31;4716737;29;97300;-70
2021/06/02 06:56:50;;;;;;;3.80;3.50;;;;;;;17.63;29.17;101326.88;4730530;29;100726;-70
2021/06/02 06:59:18;;;;;;;5.35;3.10;;;;;;;17.66;28.99;101326.84;4731342;29;99699;-70
2021/06/02 07:01:47;;;;;;;6.47;3.65;;;;;;;17.70;29.20;101323.28;4732492;29;98083;-70
2021/06/02 07:04:16;;;;;;;15.20;9.48;;;;;;;17.75;29.13;101325.06;4733092;29;97284;-70
2021/06/02 07:06:44;;;;;;;25.73;15.50;;;;;;;17.77;29.10;101325.97;4735150;29;97665;-69
2021/06/02 07:09:12;;;;;;;13.35;9.05;;;;;;;17.84;29.12;101324.16;4732746;29;101999;-69
2021/06/02 07:11:41;;;;;;;4.07;3.75;;;;;;;17.86;29.25;101325.97;4731782;29;97513;-70
2021/06/02 07:14:10;;;;;;;10.60;6.85;;;;;;;17.92;29.05;101322.38;4731767;29;97678;-70
2021/06/02 07:16:40;;;;;;;34.78;23.52;;;;;;;17.94;29.27;101332.28;4716365;29;101092;-69
2021/06/02 07:19:08;;;;;;;7.93;5.68;;;;;;;17.99;29.22;101333.16;4731468;29;99251;-69
2021/06/02 07:21:40;;;;;;;6.03;5.00;;;;;;;18.01;29.41;101334.06;4732164;29;97347;-70
2021/06/02 07:24:12;;;;;;;8.43;4.80;;;;;;;17.98;31.17;101342.13;4731554;29;97301;-69
2021/06/02 07:26:40;;;;;;;6.25;4.65;;;;;;;18.16;30.52;101348.44;4730855;29;100545;-69
2021/06/02 07:29:24;;;;;;;4.15;3.22;;;;;;;18.21;30.27;101349.31;4730461;29;99531;-70
2021/06/02 07:31:52;;;;;;;4.97;3.70;;;;;;;18.21;30.22;101358.31;4733152;29;97582;-70
2021/06/02 07:34:20;;;;;;;3.60;3.30;;;;;;;18.24;30.24;101354.72;4730563;29;97426;-71
2021/06/02 07:36:50;;;;;;;3.10;2.90;;;;;;;18.21;30.24;101357.41;4730090;29;100670;-70
2021/06/02 07:39:17;;;;;;;3.75;3.25;;;;;;;18.18;30.16;101361.00;4731495;29;99336;-69
2021/06/02 07:41:45;;;;;;;3.80;3.25;;;;;;;18.21;30.21;101371.78;4716769;29;97766;-71
2021/06/02 07:44:15;;;;;;;3.08;2.88;;;;;;;18.24;30.22;101369.06;4732263;29;97504;-70
2021/06/02 07:46:42;;;;;;;4.25;3.35;;;;;;;18.23;30.20;101371.78;4730986;29;98296;-71
2021/06/02 07:49:10;;;;;;;3.65;3.25;;;;;;;18.19;30.36;101389.72;4731365;29;99891;-70
2021/06/02 07:51:39;;;;;;;4.82;4.00;;;;;;;18.07;30.57;101386.16;4731343;29;96888;-70
2021/06/02 07:54:08;;;;;;;3.83;3.53;;;;;;;18.02;30.59;101383.44;4731138;29;97631;-69
2021/06/02 07:56:36;;;;;;;3.70;3.40;;;;;;;18.02;30.52;101378.94;4731322;29;97842;-71
2021/06/02 07:59:03;;;;;;;4.13;3.20;;;;;;;18.07;30.57;101378.97;4732908;29;99356;-68
2021/06/02 08:01:31;;;;;;;137.07;72.13;;;;;;;18.14;30.81;101386.16;4750605;29;97389;-70
2021/06/02 08:03:59;;;;;;;17.75;13.32;;;;;;;18.29;30.28;101382.56;4734426;29;98089;-71
2021/06/02 08:06:26;;;;;;;5.15;4.68;;;;;;;18.37;30.05;101384.31;4733307;29;98090;-70
2021/06/02 08:08:53;;;;;;;3.95;3.65;;;;;;;18.46;30.11;101396.91;4735482;29;99387;-70
2021/06/02 08:11:23;;;;;;;8.20;4.03;;;;;;;18.55;29.99;101394.19;4718505;29;98023;-71
2021/06/02 08:13:50;;;;;;;7.90;6.32;;;;;;;18.55;30.10;101389.69;4735464;29;97450;-71
2021/06/02 08:16:18;;;;;;;20.25;9.30;;;;;;;18.54;30.22;101393.28;4732688;29;99372;-70
2021/06/02 08:18:45;;;;;;;9.63;6.85;;;;;;;18.53;30.17;101386.09;4734478;29;100948;-70
2021/06/02 08:21:13;;;;;;;6.22;4.25;;;;;;;18.57;30.13;101387.88;4733187;29;97673;-70
2021/06/02 08:23:41;;;;;;;7.65;5.22;;;;;;;18.61;29.78;101386.06;4733884;29;97511;-71
2021/06/02 08:26:09;;;;;;;4.40;4.00;;;;;;;18.62;30.05;101388.75;4735212;29;98222;-70
2021/06/02 08:28:37;;;;;;;8.38;7.18;;;;;;;18.65;29.76;101382.47;4733694;29;97489;-71
2021/06/02 08:31:05;;;;;;;12.88;8.43;;;;;;;18.69;30.05;101378.91;4733670;29;97750;-71
2021/06/02 08:33:32;;;;;;;5.90;4.70;;;;;;;18.73;29.87;101380.72;4719568;29;97559;-70
2021/06/02 08:36:00;;;;;;;4.68;4.25;;;;;;;18.74;29.78;101388.78;4733850;29;98073;-71
2021/06/02 08:38:28;;;;;;;7.55;4.60;;;;;;;18.76;29.98;101381.59;4733365;29;98786;-71
2021/06/02 08:40:55;;;;;;;4.88;4.20;;;;;;;18.80;29.83;101382.47;4733019;29;97508;-71
2021/06/02 08:43:23;;;;;;;4.72;4.22;;;;;;;18.82;29.94;101388.78;4733583;29;97552;-70
2021/06/02 08:45:56;;;;;;;6.70;4.45;;;;;;;18.80;30.33;101380.69;4731655;29;99406;-70
2021/06/02 08:48:23;;;;;;;6.43;3.97;;;;;;;18.84;30.04;101384.28;4733501;29;99210;-71
2021/06/02 08:50:51;;;;;;;7.50;4.05;;;;;;;18.83;30.23;101385.16;4719417;29;97036;-69
2021/06/02 08:53:20;;;;;;;9.05;4.40;;;;;;;18.92;30.02;101386.03;4734320;29;98161;-70
2021/06/02 08:55:48;;;;;;;8.35;4.38;;;;;;;18.91;30.29;101389.63;4717100;29;99385;-70
2021/06/02 08:58:20;;;;;;;9.18;4.43;;;;;;;18.88;30.11;101381.53;4735610;29;97281;-70
2021/06/02 09:00:48;;;;;;;6.78;4.60;;;;;;;18.84;30.60;101376.19;4733695;29;97788;-69
2021/06/02 09:03:17;;;;;;;5.75;4.43;;;;;;;18.84;30.39;101384.28;4732966;29;97951;-70
2021/06/02 09:05:44;;;;;;;35.97;21.33;;;;;;;18.85;30.61;101376.16;4732332;29;99285;-70
2021/06/02 09:08:14;;;;;;;11.98;9.13;;;;;;;18.84;30.73;101373.47;4717009;29;100237;-70
2021/06/02 09:10:42;;;;;;;17.95;4.97;;;;;;;18.89;30.88;101385.16;4732548;29;97393;-70
2021/06/02 09:13:17;;;;;;;4.50;4.10;;;;;;;18.89;31.17;101386.06;4747543;29;97410;-69
2021/06/02 09:15:47;;;;;;;6.43;5.03;;;;;;;18.93;30.92;101384.25;4732380;29;97906;-69
2021/06/02 09:18:17;;;;;;;10.85;5.68;;;;;;;18.97;30.52;101383.28;4732268;29;99364;-70
2021/06/02 09:20:46;;;;;;;14.27;7.05;;;;;;;19.05;30.76;101381.47;4733611;29;97267;-69
2021/06/02 09:23:31;;;;;;;5.90;4.95;;;;;;;19.16;31.18;101385.03;4731924;29;97796;-69
2021/06/02 09:26:16;;;;;;;5.90;4.90;;;;;;;19.21;31.52;101380.50;4747518;29;97726;-70
2021/06/02 09:28:52;;;;;;;6.93;4.57;;;;;;;19.26;31.09;101376.00;4732618;29;97896;-70
2021/06/02 09:31:30;;;;;;;4.93;4.43;;;;;;;19.32;30.89;101375.97;4732985;29;96954;-71
2021/06/02 09:34:03;;;;;;;7.32;4.75;;;;;;;19.41;30.67;101377.75;4718718;29;97592;-71
2021/06/02 09:36:32;;;;;;;6.72;6.00;;;;;;;19.44;30.59;101389.44;4730529;29;97768;-70
2021/06/02 09:39:01;;;;;;;5.80;4.65;;;;;;;19.55;30.68;101386.66;4731522;29;97909;-70
2021/06/02 09:41:29;;;;;;;5.75;5.25;;;;;;;19.60;30.46;101380.31;4732165;29;97704;-70
2021/06/02 09:43:57;;;;;;;7.35;4.93;;;;;;;19.65;30.35;101388.38;4734119;29;98120;-70
2021/06/02 09:46:25;;;;;;;4.55;3.78;;;;;;;19.66;30.33;101391.06;4732688;29;97676;-72
2021/06/02 09:49:01;;;;;;;5.28;4.35;;;;;;;19.74;30.26;101388.31;4717529;29;99875;-69
2021/06/02 09:51:36;;;;;;;10.05;5.55;;;;;;;19.78;30.26;101385.59;4733153;29;97096;-69
2021/06/02 09:54:05;;;;;;;18.90;12.00;;;;;;;19.84;30.21;101385.56;4718394;29;97835;-69
2021/06/02 09:56:38;;;;;;;13.13;9.70;;;;;;;19.90;30.48;101382.78;4731266;29;99065;-70
2021/06/02 09:59:08;;;;;;;7.55;5.00;;;;;;;19.96;30.01;101377.38;4731970;29;99991;-69
2021/06/02 10:01:57;;;;;;;5.72;5.10;;;;;;;20.07;30.48;101384.47;4733241;29;97370;-69
2021/06/02 10:04:31;;;;;;;6.75;4.90;;;;;;;20.11;30.41;101381.75;4731803;29;97652;-69
2021/06/02 10:06:59;;;;;;;7.70;5.47;;;;;;;20.15;30.13;101380.81;4731811;29;100802;-69
2021/06/02 10:09:30;;;;;;;50.55;26.23;;;;;;;20.22;29.95;101377.16;4747285;29;99970;-70
2021/06/02 10:11:59;;;;;;;10.13;7.57;;;;;;;20.28;29.50;101373.50;4732917;29;97247;-70
2021/06/02 10:14:27;;;;;;;5.68;4.90;;;;;;;20.35;29.44;101372.53;4733183;29;97936;-69
2021/06/02 10:16:55;;;;;;;7.07;5.13;;;;;;;20.44;29.41;101367.03;4733498;29;99016;-69
2021/06/02 10:19:41;;;;;;;5.75;4.93;;;;;;;20.54;29.95;101374.19;4737132;29;97613;-69
2021/06/02 10:22:19;;;;;;;8.93;4.97;;;;;;;20.56;29.80;101372.31;4731591;29;97416;-69
2021/06/02 10:24:50;;;;;;;6.05;5.35;;;;;;;20.53;29.56;101378.69;4719151;29;97924;-69
2021/06/02 10:27:19;;;;;;;7.90;5.53;;;;;;;20.57;29.47;101375.03;4717379;29;99340;-69
2021/06/02 10:29:47;;;;;;;10.95;5.50;;;;;;;20.64;29.57;101371.34;4732506;29;100547;-69
2021/06/02 10:32:15;;;;;;;4.80;4.40;;;;;;;20.71;29.46;101369.47;4732200;29;97626;-70
2021/06/02 10:34:44;;;;;;;6.05;5.55;;;;;;;20.76;29.53;101368.50;4731505;29;97288;-69
2021/06/02 10:37:12;;;;;;;8.55;6.40;;;;;;;20.80;29.46;101358.53;4746934;29;100922;-69
2021/06/02 10:39:42;;;;;;;50.33;32.72;;;;;;;20.85;29.18;101360.28;4732882;29;99512;-70
2021/06/02 10:42:17;;;;;;;44.10;28.13;;;;;;;20.92;29.13;101351.16;4732527;29;96924;-70
2021/06/02 10:44:48;;;;;;;12.63;9.45;;;;;;;21.01;29.39;101355.59;4732200;29;97931;-70
2021/06/02 10:47:15;;;;;;;6.57;5.80;;;;;;;21.07;28.99;101357.31;4731634;29;100149;-69
2021/06/02 10:49:44;;;;;;;6.50;5.43;;;;;;;21.13;28.89;101344.63;4716380;29;99558;-70
2021/06/02 10:52:11;;;;;;;25.90;14.43;;;;;;;21.21;29.16;101349.94;4731816;29;98343;-69
2021/06/02 10:54:40;;;;;;;17.80;13.23;;;;;;;21.30;29.34;101338.97;4731923;29;96764;-69
2021/06/02 10:57:12;;;;;;;7.72;6.82;;;;;;;21.34;28.98;101338.88;4730807;29;99184;-70
2021/06/02 10:59:42;;;;;;;7.03;5.97;;;;;;;21.39;28.92;101339.75;4730785;29;97188;-69
2021/06/02 11:02:10;;;;;;;5.55;5.05;;;;;;;21.48;29.14;101342.31;4732224;29;96727;-70
2021/06/02 11:04:39;;;;;;;7.10;5.72;;;;;;;21.56;29.20;101340.38;4730706;29;96875;-70
2021/06/02 11:07:19;;;;;;;5.53;5.00;;;;;;;21.67;29.15;101345.63;4714924;29;100641;-69
2021/06/02 11:09:55;;;;;;;8.60;5.10;;;;;;;21.75;28.97;101341.91;4731137;29;100584;-70
2021/06/02 11:12:23;;;;;;;6.72;6.03;;;;;;;21.84;28.60;101343.56;4731326;29;96744;-70
2021/06/02 11:14:52;;;;;;;59.72;42.15;;;;;;;21.96;28.52;101340.66;4731615;29;97538;-69
2021/06/02 11:17:21;;;;;;;12.65;9.20;;;;;;;22.05;28.42;101340.50;4730227;29;97988;-70
2021/06/02 11:19:53;;;;;;;6.80;5.43;;;;;;;22.17;28.32;101334.84;4732481;29;97851;-69
2021/06/02 11:22:24;;;;;;;7.68;5.38;;;;;;;22.22;28.03;101332.09;4730695;29;97305;-68
2021/06/02 11:24:56;;;;;;;6.45;5.30;;;;;;;22.38;27.96;101333.63;4729362;29;97027;-69
2021/06/02 11:27:37;;;;;;;6.25;5.35;;;;;;;22.47;28.06;101331.63;4716287;29;99983;-69
2021/06/02 11:30:24;;;;;;;6.45;5.60;;;;;;;22.58;27.92;101336.84;4731445;29;98632;-69
2021/06/02 11:32:57;;;;;;;9.00;4.78;;;;;;;22.69;27.62;101329.38;4731762;29;97444;-69
2021/06/02 11:36:14;;;;;;;7.00;5.28;;;;;;;22.79;27.81;101333.69;4730117;29;98015;-67
2021/06/02 11:38:44;;;;;;;6.82;5.07;;;;;;;22.88;27.10;101335.38;4646950;30;100667;-69
2021/06/02 11:41:12;;;;;;;8.18;5.68;;;;;;;22.96;27.19;101339.69;4713667;29;99061;-70
2021/06/02 11:43:59;;;;;;;4.47;4.07;;;;;;;23.07;27.27;101334.94;4730335;29;97604;-68
2021/06/02 11:46:45;;;;;;;4.40;4.05;;;;;;;23.18;26.37;101330.16;4729907;29;97602;-70
2021/06/02 11:49:26;;;;;;;7.20;4.30;;;;;;;23.26;25.87;101327.28;4732735;29;97944;-69
2021/06/02 11:51:55;;;;;;;4.53;4.22;;;;;;;23.32;26.24;101333.44;4730217;29;99449;-69
2021/06/02 11:54:24;;;;;;;4.22;3.80;;;;;;;23.40;26.19;101333.31;4731446;29;97322;-69
2021/06/02 11:56:51;;;;;;;4.20;3.90;;;;;;;23.47;25.99;101330.41;4715980;29;97992;-70
2021/06/02 11:59:19;;;;;;;6.80;4.78;;;;;;;23.54;26.02;101328.44;4732084;29;97803;-69
2021/06/02 12:01:46;;;;;;;3.95;3.67;;;;;;;23.63;25.78;101339.97;4731387;29;97723;-69
2021/06/02 12:04:23;;;;;;;3.50;3.30;;;;;;;23.72;24.88;101337.03;4730606;29;97873;-69